sensor_id;sensor_type;location;lat;lon;timestamp;temperature;humidity
21722;DHT22;11023;48.274;7.794;2022-12-07T00:00:30;5.20;99.90
21722;DHT22;11023;48.274;7.794;2022-12-07T00:02:56;5.10;99.90
21722;DHT22;11023;48.274;7.794;2022-12-07T00:05:22;5.20;99.90
21722;DHT22;11023;48.274;7.794;2022-12-07T00:07:47;5.10;99.90
21722;DHT22;11023;48.274;7.794;2022-12-07T00:10:14;5.00;99.90
21722;DHT22;11023;48.274;7.794;2022-12-07T00:12:40;4.90;99.90
21722;DHT22;11023;48.274;7.794;2022-12-07T00:15:07;4.90;99.90
21722;DHT22;11023;48.274;7.794;2022-12-07T00:17:32;4.80;99.90
21722;DHT22;11023;48.274;7.794;2022-12-07T00:19:59;4.80;99.90
21722;DHT22;11023;48.274;7.794;2022-12-07T00:22:24;4.80;99.90
21722;DHT22;11023;48.274;7.794;2022-12-07T00:24:50;4.70;99.90
21722;DHT22;11023;48.274;7.794;2022-12-07T00:27:16;4.70;99.90
21722;DHT22;11023;48.274;7.794;2022-12-07T00:29:41;4.80;99.90
21722;DHT22;11023;48.274;7.794;2022-12-07T00:32:07;4.70;99.90
21722;DHT22;11023;48.274;7.794;2022-12-07T00:34:33;4.60;99.90
21722;DHT22;11023;48.274;7.794;2022-12-07T00:36:58;4.60;99.90
21722;DHT22;11023;48.274;7.794;2022-12-07T00:39:24;4.60;99.90
21722;DHT22;11023;48.274;7.794;2022-12-07T00:41:50;4.60;99.90
21722;DHT22;11023;48.274;7.794;2022-12-07T00:44:15;4.50;99.90
21722;DHT22;11023;48.274;7.794;2022-12-07T00:46:41;4.50;99.90
21722;DHT22;11023;48.274;7.794;2022-12-07T00:49:06;4.60;99.90
21722;DHT22;11023;48.274;7.794;2022-12-07T00:51:32;4.60;99.90
21722;DHT22;11023;48.274;7.794;2022-12-07T00:53:58;4.60;99.90
21722;DHT22;11023;48.274;7.794;2022-12-07T00:56:26;4.60;99.90
21722;DHT22;11023;48.274;7.794;2022-12-07T00:59:02;4.60;99.90
21722;DHT22;11023;48.274;7.794;2022-12-07T01:01:31;4.50;99.90
21722;DHT22;11023;48.274;7.794;2022-12-07T01:03:57;4.60;99.90
21722;DHT22;11023;48.274;7.794;2022-12-07T01:06:25;4.60;99.90
21722;DHT22;11023;48.274;7.794;2022-12-07T01:08:51;4.60;99.90
21722;DHT22;11023;48.274;7.794;2022-12-07T01:11:20;4.60;99.90
21722;DHT22;11023;48.274;7.794;2022-12-07T01:13:46;4.60;99.90
21722;DHT22;11023;48.274;7.794;2022-12-07T01:16:14;4.60;99.90
21722;DHT22;11023;48.274;7.794;2022-12-07T01:18:40;4.60;99.90
21722;DHT22;11023;48.274;7.794;2022-12-07T01:21:15;4.60;99.90
21722;DHT22;11023;48.274;7.794;2022-12-07T01:23:41;4.70;99.90
21722;DHT22;11023;48.274;7.794;2022-12-07T01:26:11;4.70;99.90
21722;DHT22;11023;48.274;7.794;2022-12-07T01:28:37;4.60;99.90
21722;DHT22;11023;48.274;7.794;2022-12-07T01:31:06;4.60;99.90
21722;DHT22;11023;48.274;7.794;2022-12-07T01:33:34;4.70;99.90
21722;DHT22;11023;48.274;7.794;2022-12-07T01:36:21;4.60;99.90
21722;DHT22;11023;48.274;7.794;2022-12-07T01:38:49;4.70;99.90
21722;DHT22;11023;48.274;7.794;2022-12-07T01:41:17;4.70;99.90
21722;DHT22;11023;48.274;7.794;2022-12-07T01:46:43;4.70;99.90
21722;DHT22;11023;48.274;7.794;2022-12-07T01:49:14;4.60;99.90
21722;DHT22;11023;48.274;7.794;2022-12-07T01:51:42;4.60;99.90
21722;DHT22;11023;48.274;7.794;2022-12-07T01:54:10;4.60;99.90
21722;DHT22;11023;48.274;7.794;2022-12-07T01:56:36;4.60;99.90
21722;DHT22;11023;48.274;7.794;2022-12-07T01:59:02;4.60;99.90
21722;DHT22;11023;48.274;7.794;2022-12-07T02:01:28;4.60;99.90
21722;DHT22;11023;48.274;7.794;2022-12-07T02:03:54;4.60;99.90
21722;DHT22;11023;48.274;7.794;2022-12-07T02:06:23;4.60;99.90
21722;DHT22;11023;48.274;7.794;2022-12-07T02:08:49;4.60;99.90
21722;DHT22;11023;48.274;7.794;2022-12-07T02:11:16;4.70;99.90
21722;DHT22;11023;48.274;7.794;2022-12-07T02:13:43;4.70;99.90
21722;DHT22;11023;48.274;7.794;2022-12-07T02:21:51;4.70;99.90
21722;DHT22;11023;48.274;7.794;2022-12-07T02:32:16;4.70;99.90
21722;DHT22;11023;48.274;7.794;2022-12-07T02:34:55;4.70;99.90
21722;DHT22;11023;48.274;7.794;2022-12-07T02:43:01;4.70;99.90
21722;DHT22;11023;48.274;7.794;2022-12-07T02:45:29;4.70;99.90
21722;DHT22;11023;48.274;7.794;2022-12-07T02:47:58;4.70;99.90
21722;DHT22;11023;48.274;7.794;2022-12-07T02:50:25;4.60;99.90
21722;DHT22;11023;48.274;7.794;2022-12-07T02:52:51;4.60;99.90
21722;DHT22;11023;48.274;7.794;2022-12-07T02:55:19;4.60;99.90
21722;DHT22;11023;48.274;7.794;2022-12-07T03:00:37;4.60;99.90
21722;DHT22;11023;48.274;7.794;2022-12-07T03:03:10;4.60;99.90
21722;DHT22;11023;48.274;7.794;2022-12-07T03:11:03;4.60;99.90
21722;DHT22;11023;48.274;7.794;2022-12-07T03:16:23;4.50;99.90
21722;DHT22;11023;48.274;7.794;2022-12-07T03:18:55;4.50;99.90
21722;DHT22;11023;48.274;7.794;2022-12-07T03:21:26;4.50;99.90
21722;DHT22;11023;48.274;7.794;2022-12-07T03:23:56;4.50;99.90
21722;DHT22;11023;48.274;7.794;2022-12-07T03:26:25;4.60;99.90
21722;DHT22;11023;48.274;7.794;2022-12-07T03:28:56;4.50;99.90
21722;DHT22;11023;48.274;7.794;2022-12-07T03:31:31;4.50;99.90
21722;DHT22;11023;48.274;7.794;2022-12-07T03:34:03;4.50;99.90
21722;DHT22;11023;48.274;7.794;2022-12-07T03:41:39;4.50;99.90
21722;DHT22;11023;48.274;7.794;2022-12-07T03:44:06;4.50;99.90
21722;DHT22;11023;48.274;7.794;2022-12-07T03:46:52;4.50;99.90
21722;DHT22;11023;48.274;7.794;2022-12-07T03:49:41;4.50;99.90
21722;DHT22;11023;48.274;7.794;2022-12-07T03:52:38;4.50;99.90
21722;DHT22;11023;48.274;7.794;2022-12-07T03:55:13;4.50;99.90
21722;DHT22;11023;48.274;7.794;2022-12-07T03:57:41;4.50;99.90
21722;DHT22;11023;48.274;7.794;2022-12-07T04:00:10;4.40;99.90
21722;DHT22;11023;48.274;7.794;2022-12-07T04:02:36;4.40;99.90
21722;DHT22;11023;48.274;7.794;2022-12-07T04:05:02;4.40;99.90
21722;DHT22;11023;48.274;7.794;2022-12-07T04:07:28;4.40;99.90
21722;DHT22;11023;48.274;7.794;2022-12-07T04:09:53;4.40;99.90
21722;DHT22;11023;48.274;7.794;2022-12-07T04:12:21;4.40;99.90
21722;DHT22;11023;48.274;7.794;2022-12-07T04:14:46;4.40;99.90
21722;DHT22;11023;48.274;7.794;2022-12-07T04:17:12;4.40;99.90
21722;DHT22;11023;48.274;7.794;2022-12-07T04:19:38;4.40;99.90
21722;DHT22;11023;48.274;7.794;2022-12-07T04:22:04;4.40;99.90
21722;DHT22;11023;48.274;7.794;2022-12-07T04:24:30;4.30;99.90
21722;DHT22;11023;48.274;7.794;2022-12-07T04:26:56;4.30;99.90
21722;DHT22;11023;48.274;7.794;2022-12-07T04:29:23;4.30;99.90
21722;DHT22;11023;48.274;7.794;2022-12-07T04:31:49;4.30;99.90
21722;DHT22;11023;48.274;7.794;2022-12-07T04:34:16;4.30;99.90
21722;DHT22;11023;48.274;7.794;2022-12-07T04:36:43;4.30;99.90
21722;DHT22;11023;48.274;7.794;2022-12-07T04:39:29;4.30;99.90
21722;DHT22;11023;48.274;7.794;2022-12-07T04:41:57;4.30;99.90
21722;DHT22;11023;48.274;7.794;2022-12-07T04:44:23;4.30;99.90
21722;DHT22;11023;48.274;7.794;2022-12-07T04:46:50;4.30;99.90
21722;DHT22;11023;48.274;7.794;2022-12-07T04:49:16;4.30;99.90
21722;DHT22;11023;48.274;7.794;2022-12-07T04:51:44;4.30;99.90
21722;DHT22;11023;48.274;7.794;2022-12-07T04:54:10;4.30;99.90
21722;DHT22;11023;48.274;7.794;2022-12-07T04:56:36;4.30;99.90
21722;DHT22;11023;48.274;7.794;2022-12-07T04:59:03;4.20;99.90
21722;DHT22;11023;48.274;7.794;2022-12-07T05:01:30;4.20;99.90
21722;DHT22;11023;48.274;7.794;2022-12-07T05:03:55;4.10;99.90
21722;DHT22;11023;48.274;7.794;2022-12-07T05:06:21;4.10;99.90
21722;DHT22;11023;48.274;7.794;2022-12-07T05:08:47;4.10;99.90
21722;DHT22;11023;48.274;7.794;2022-12-07T05:11:13;4.00;99.90
21722;DHT22;11023;48.274;7.794;2022-12-07T05:13:59;4.00;99.90
21722;DHT22;11023;48.274;7.794;2022-12-07T05:16:26;4.00;99.90
21722;DHT22;11023;48.274;7.794;2022-12-07T05:18:51;4.00;99.90
21722;DHT22;11023;48.274;7.794;2022-12-07T05:21:18;4.00;99.90
21722;DHT22;11023;48.274;7.794;2022-12-07T05:23:43;4.00;99.90
21722;DHT22;11023;48.274;7.794;2022-12-07T05:26:09;4.00;99.90
21722;DHT22;11023;48.274;7.794;2022-12-07T05:28:35;3.90;99.90
21722;DHT22;11023;48.274;7.794;2022-12-07T05:31:00;3.80;99.90
21722;DHT22;11023;48.274;7.794;2022-12-07T05:33:26;3.70;99.90
21722;DHT22;11023;48.274;7.794;2022-12-07T05:35:52;3.70;99.90
21722;DHT22;11023;48.274;7.794;2022-12-07T05:38:17;3.70;99.90
21722;DHT22;11023;48.274;7.794;2022-12-07T05:40:43;3.50;99.90
21722;DHT22;11023;48.274;7.794;2022-12-07T05:43:09;3.50;99.90
21722;DHT22;11023;48.274;7.794;2022-12-07T05:45:34;3.50;99.90
21722;DHT22;11023;48.274;7.794;2022-12-07T05:48:00;3.50;99.90
21722;DHT22;11023;48.274;7.794;2022-12-07T05:50:26;3.40;99.90
21722;DHT22;11023;48.274;7.794;2022-12-07T05:52:53;3.40;99.90
21722;DHT22;11023;48.274;7.794;2022-12-07T05:55:18;3.40;99.90
21722;DHT22;11023;48.274;7.794;2022-12-07T05:57:44;3.40;99.90
21722;DHT22;11023;48.274;7.794;2022-12-07T06:00:30;3.40;99.90
21722;DHT22;11023;48.274;7.794;2022-12-07T06:02:55;3.30;99.90
21722;DHT22;11023;48.274;7.794;2022-12-07T06:05:21;3.20;99.90
21722;DHT22;11023;48.274;7.794;2022-12-07T06:07:47;3.20;99.90
21722;DHT22;11023;48.274;7.794;2022-12-07T06:10:12;3.20;99.90
21722;DHT22;11023;48.274;7.794;2022-12-07T06:12:38;3.10;99.90
21722;DHT22;11023;48.274;7.794;2022-12-07T06:15:05;3.10;99.90
21722;DHT22;11023;48.274;7.794;2022-12-07T06:17:31;3.00;99.90
21722;DHT22;11023;48.274;7.794;2022-12-07T06:19:57;3.00;99.90
21722;DHT22;11023;48.274;7.794;2022-12-07T06:22:22;2.90;99.90
21722;DHT22;11023;48.274;7.794;2022-12-07T06:24:48;2.80;99.90
21722;DHT22;11023;48.274;7.794;2022-12-07T06:27:14;2.70;99.90
21722;DHT22;11023;48.274;7.794;2022-12-07T06:29:39;2.70;99.90
21722;DHT22;11023;48.274;7.794;2022-12-07T06:32:05;2.70;99.90
21722;DHT22;11023;48.274;7.794;2022-12-07T06:34:31;2.60;99.90
21722;DHT22;11023;48.274;7.794;2022-12-07T06:36:57;2.60;99.90
21722;DHT22;11023;48.274;7.794;2022-12-07T06:39:25;2.60;99.90
21722;DHT22;11023;48.274;7.794;2022-12-07T06:41:51;2.60;99.90
21722;DHT22;11023;48.274;7.794;2022-12-07T06:44:18;2.60;99.90
21722;DHT22;11023;48.274;7.794;2022-12-07T06:46:44;2.60;99.90
21722;DHT22;11023;48.274;7.794;2022-12-07T06:49:10;2.60;99.90
21722;DHT22;11023;48.274;7.794;2022-12-07T06:51:36;2.60;99.90
21722;DHT22;11023;48.274;7.794;2022-12-07T06:54:09;2.60;99.90
21722;DHT22;11023;48.274;7.794;2022-12-07T06:56:34;2.40;99.90
21722;DHT22;11023;48.274;7.794;2022-12-07T06:59:00;2.30;99.90
21722;DHT22;11023;48.274;7.794;2022-12-07T07:01:26;2.30;99.90
21722;DHT22;11023;48.274;7.794;2022-12-07T07:03:52;2.20;99.90
21722;DHT22;11023;48.274;7.794;2022-12-07T07:06:18;2.20;99.90
21722;DHT22;11023;48.274;7.794;2022-12-07T07:08:43;2.20;99.90
21722;DHT22;11023;48.274;7.794;2022-12-07T07:11:11;2.10;99.90
21722;DHT22;11023;48.274;7.794;2022-12-07T07:13:37;2.10;99.90
21722;DHT22;11023;48.274;7.794;2022-12-07T07:16:03;2.10;99.90
21722;DHT22;11023;48.274;7.794;2022-12-07T07:18:29;2.10;99.90
21722;DHT22;11023;48.274;7.794;2022-12-07T07:20:55;2.10;99.90
21722;DHT22;11023;48.274;7.794;2022-12-07T07:23:21;2.10;99.90
21722;DHT22;11023;48.274;7.794;2022-12-07T07:25:47;2.10;99.90
21722;DHT22;11023;48.274;7.794;2022-12-07T07:28:13;2.10;99.90
21722;DHT22;11023;48.274;7.794;2022-12-07T07:30:39;2.10;99.90
21722;DHT22;11023;48.274;7.794;2022-12-07T07:33:05;2.00;99.90
21722;DHT22;11023;48.274;7.794;2022-12-07T07:35:32;2.00;99.90
21722;DHT22;11023;48.274;7.794;2022-12-07T07:37:59;2.00;99.90
21722;DHT22;11023;48.274;7.794;2022-12-07T07:40:25;2.00;99.90
21722;DHT22;11023;48.274;7.794;2022-12-07T07:42:55;2.00;99.90
21722;DHT22;11023;48.274;7.794;2022-12-07T07:45:22;2.00;99.90
21722;DHT22;11023;48.274;7.794;2022-12-07T07:47:48;2.10;99.90
21722;DHT22;11023;48.274;7.794;2022-12-07T07:50:14;2.10;99.90
21722;DHT22;11023;48.274;7.794;2022-12-07T07:52:43;2.10;99.90
21722;DHT22;11023;48.274;7.794;2022-12-07T07:55:09;2.20;99.90
21722;DHT22;11023;48.274;7.794;2022-12-07T07:57:36;2.20;99.90
21722;DHT22;11023;48.274;7.794;2022-12-07T08:00:08;2.20;99.90
21722;DHT22;11023;48.274;7.794;2022-12-07T08:02:34;2.20;99.90
21722;DHT22;11023;48.274;7.794;2022-12-07T08:05:00;2.30;99.90
21722;DHT22;11023;48.274;7.794;2022-12-07T08:07:27;2.30;99.90
21722;DHT22;11023;48.274;7.794;2022-12-07T08:09:53;2.40;99.90
21722;DHT22;11023;48.274;7.794;2022-12-07T08:12:19;2.40;99.90
21722;DHT22;11023;48.274;7.794;2022-12-07T08:14:44;2.50;99.90
21722;DHT22;11023;48.274;7.794;2022-12-07T08:17:10;2.50;99.90
21722;DHT22;11023;48.274;7.794;2022-12-07T08:19:36;2.60;99.90
21722;DHT22;11023;48.274;7.794;2022-12-07T08:22:02;2.60;99.90
21722;DHT22;11023;48.274;7.794;2022-12-07T08:24:27;2.70;99.90
21722;DHT22;11023;48.274;7.794;2022-12-07T08:26:53;2.70;99.90
21722;DHT22;11023;48.274;7.794;2022-12-07T08:29:19;2.80;99.90
21722;DHT22;11023;48.274;7.794;2022-12-07T08:31:45;2.80;99.90
21722;DHT22;11023;48.274;7.794;2022-12-07T08:34:11;2.80;99.90
21722;DHT22;11023;48.274;7.794;2022-12-07T08:36:37;2.90;99.90
21722;DHT22;11023;48.274;7.794;2022-12-07T08:39:03;2.90;99.90
21722;DHT22;11023;48.274;7.794;2022-12-07T08:41:28;3.00;99.90
21722;DHT22;11023;48.274;7.794;2022-12-07T08:43:54;3.10;99.90
21722;DHT22;11023;48.274;7.794;2022-12-07T08:46:24;3.20;99.90
21722;DHT22;11023;48.274;7.794;2022-12-07T08:51:23;3.30;99.90
21722;DHT22;11023;48.274;7.794;2022-12-07T08:53:51;3.40;99.90
21722;DHT22;11023;48.274;7.794;2022-12-07T08:56:17;3.40;99.90
21722;DHT22;11023;48.274;7.794;2022-12-07T08:58:43;3.50;99.90
21722;DHT22;11023;48.274;7.794;2022-12-07T09:01:09;3.60;99.90
21722;DHT22;11023;48.274;7.794;2022-12-07T09:03:35;3.70;99.90
21722;DHT22;11023;48.274;7.794;2022-12-07T09:06:01;3.80;99.90
21722;DHT22;11023;48.274;7.794;2022-12-07T09:08:31;3.90;99.90
21722;DHT22;11023;48.274;7.794;2022-12-07T09:10:58;4.00;99.90
21722;DHT22;11023;48.274;7.794;2022-12-07T09:13:24;4.10;99.90
21722;DHT22;11023;48.274;7.794;2022-12-07T09:15:49;4.20;99.90
21722;DHT22;11023;48.274;7.794;2022-12-07T09:18:15;4.30;99.90
21722;DHT22;11023;48.274;7.794;2022-12-07T09:20:40;4.40;99.90
21722;DHT22;11023;48.274;7.794;2022-12-07T09:23:07;4.60;99.90
21722;DHT22;11023;48.274;7.794;2022-12-07T09:25:33;4.70;99.90
21722;DHT22;11023;48.274;7.794;2022-12-07T09:27:59;4.80;99.90
21722;DHT22;11023;48.274;7.794;2022-12-07T09:30:26;4.90;99.90
21722;DHT22;11023;48.274;7.794;2022-12-07T09:32:56;4.90;99.90
21722;DHT22;11023;48.274;7.794;2022-12-07T09:35:23;5.00;99.90
21722;DHT22;11023;48.274;7.794;2022-12-07T09:37:49;5.10;99.90
21722;DHT22;11023;48.274;7.794;2022-12-07T09:40:16;5.10;99.90
21722;DHT22;11023;48.274;7.794;2022-12-07T09:42:53;5.20;99.90
21722;DHT22;11023;48.274;7.794;2022-12-07T09:45:26;5.20;99.90
21722;DHT22;11023;48.274;7.794;2022-12-07T09:47:54;5.30;99.90
21722;DHT22;11023;48.274;7.794;2022-12-07T09:50:23;5.30;99.90
21722;DHT22;11023;48.274;7.794;2022-12-07T09:52:50;5.30;99.90
21722;DHT22;11023;48.274;7.794;2022-12-07T09:55:23;5.30;99.90
21722;DHT22;11023;48.274;7.794;2022-12-07T09:57:50;5.30;99.90
21722;DHT22;11023;48.274;7.794;2022-12-07T10:00:19;5.30;99.90
21722;DHT22;11023;48.274;7.794;2022-12-07T10:02:57;5.40;99.90
21722;DHT22;11023;48.274;7.794;2022-12-07T10:05:30;5.40;99.90
21722;DHT22;11023;48.274;7.794;2022-12-07T10:07:56;5.40;99.90
21722;DHT22;11023;48.274;7.794;2022-12-07T10:10:29;5.40;99.90
21722;DHT22;11023;48.274;7.794;2022-12-07T10:12:59;5.60;99.90
21722;DHT22;11023;48.274;7.794;2022-12-07T10:15:55;5.60;99.90
21722;DHT22;11023;48.274;7.794;2022-12-07T10:18:38;5.60;99.90
21722;DHT22;11023;48.274;7.794;2022-12-07T10:23:59;5.70;99.90
21722;DHT22;11023;48.274;7.794;2022-12-07T10:27:00;5.70;99.90
21722;DHT22;11023;48.274;7.794;2022-12-07T10:29:30;5.70;99.90
21722;DHT22;11023;48.274;7.794;2022-12-07T10:32:05;5.70;99.90
21722;DHT22;11023;48.274;7.794;2022-12-07T10:34:37;5.70;99.90
21722;DHT22;11023;48.274;7.794;2022-12-07T10:39:45;5.80;99.90
21722;DHT22;11023;48.274;7.794;2022-12-07T10:42:26;5.80;99.90
21722;DHT22;11023;48.274;7.794;2022-12-07T10:53:18;5.90;99.90
21722;DHT22;11023;48.274;7.794;2022-12-07T10:58:17;6.10;99.90
21722;DHT22;11023;48.274;7.794;2022-12-07T11:03:40;6.40;99.90
21722;DHT22;11023;48.274;7.794;2022-12-07T11:08:43;6.30;99.90
21722;DHT22;11023;48.274;7.794;2022-12-07T11:14:13;6.40;99.90
21722;DHT22;11023;48.274;7.794;2022-12-07T11:20:12;6.50;99.90
21722;DHT22;11023;48.274;7.794;2022-12-07T11:22:51;6.60;99.90
21722;DHT22;11023;48.274;7.794;2022-12-07T11:25:30;6.60;99.90
21722;DHT22;11023;48.274;7.794;2022-12-07T11:36:44;6.70;99.90
21722;DHT22;11023;48.274;7.794;2022-12-07T11:39:15;6.90;99.90
21722;DHT22;11023;48.274;7.794;2022-12-07T11:41:42;6.90;99.90
21722;DHT22;11023;48.274;7.794;2022-12-07T11:47:11;7.00;99.90
21722;DHT22;11023;48.274;7.794;2022-12-07T11:52:13;7.10;99.90
21722;DHT22;11023;48.274;7.794;2022-12-07T11:54:43;7.20;99.90
21722;DHT22;11023;48.274;7.794;2022-12-07T11:57:41;7.20;99.90
21722;DHT22;11023;48.274;7.794;2022-12-07T12:00:14;7.20;99.90
21722;DHT22;11023;48.274;7.794;2022-12-07T12:03:04;7.20;99.90
21722;DHT22;11023;48.274;7.794;2022-12-07T12:05:31;7.20;99.90
21722;DHT22;11023;48.274;7.794;2022-12-07T12:08:18;7.20;99.90
21722;DHT22;11023;48.274;7.794;2022-12-07T12:11:00;7.30;99.90
21722;DHT22;11023;48.274;7.794;2022-12-07T12:20:17;7.30;99.90
21722;DHT22;11023;48.274;7.794;2022-12-07T12:22:38;7.40;99.90
21722;DHT22;11023;48.274;7.794;2022-12-07T12:25:14;7.40;99.90
21722;DHT22;11023;48.274;7.794;2022-12-07T12:27:47;7.50;99.90
21722;DHT22;11023;48.274;7.794;2022-12-07T12:30:43;7.40;99.90
21722;DHT22;11023;48.274;7.794;2022-12-07T12:33:35;7.40;99.90
21722;DHT22;11023;48.274;7.794;2022-12-07T12:36:21;7.50;99.90
21722;DHT22;11023;48.274;7.794;2022-12-07T12:44:01;7.30;99.90
21722;DHT22;11023;48.274;7.794;2022-12-07T12:52:00;7.40;99.90
21722;DHT22;11023;48.274;7.794;2022-12-07T12:54:30;7.40;99.90
21722;DHT22;11023;48.274;7.794;2022-12-07T12:59:34;7.50;99.90
21722;DHT22;11023;48.274;7.794;2022-12-07T13:15:38;7.60;99.90
21722;DHT22;11023;48.274;7.794;2022-12-07T13:18:22;7.60;99.90
21722;DHT22;11023;48.274;7.794;2022-12-07T13:28:48;7.40;99.90
21722;DHT22;11023;48.274;7.794;2022-12-07T13:31:35;7.40;99.90
21722;DHT22;11023;48.274;7.794;2022-12-07T13:34:05;7.20;99.90
21722;DHT22;11023;48.274;7.794;2022-12-07T13:36:36;7.20;99.90
21722;DHT22;11023;48.274;7.794;2022-12-07T13:39:32;7.10;99.90
21722;DHT22;11023;48.274;7.794;2022-12-07T13:41:59;7.00;99.90
21722;DHT22;11023;48.274;7.794;2022-12-07T13:44:34;6.90;99.90
21722;DHT22;11023;48.274;7.794;2022-12-07T13:49:54;6.90;99.90
21722;DHT22;11023;48.274;7.794;2022-12-07T13:52:28;6.90;99.90
21722;DHT22;11023;48.274;7.794;2022-12-07T13:54:58;6.80;99.90
21722;DHT22;11023;48.274;7.794;2022-12-07T13:57:25;6.80;99.90
21722;DHT22;11023;48.274;7.794;2022-12-07T13:59:52;6.80;99.90
21722;DHT22;11023;48.274;7.794;2022-12-07T14:02:29;6.80;99.90
21722;DHT22;11023;48.274;7.794;2022-12-07T14:05:24;6.90;99.90
21722;DHT22;11023;48.274;7.794;2022-12-07T14:07:59;7.00;99.90
21722;DHT22;11023;48.274;7.794;2022-12-07T14:13:00;7.00;99.90
21722;DHT22;11023;48.274;7.794;2022-12-07T14:15:29;7.20;99.90
21722;DHT22;11023;48.274;7.794;2022-12-07T14:17:56;7.20;99.90
21722;DHT22;11023;48.274;7.794;2022-12-07T14:20:39;7.20;99.90
21722;DHT22;11023;48.274;7.794;2022-12-07T14:23:24;7.20;99.90
21722;DHT22;11023;48.274;7.794;2022-12-07T14:25:52;7.20;99.90
21722;DHT22;11023;48.274;7.794;2022-12-07T14:28:33;7.20;99.90
21722;DHT22;11023;48.274;7.794;2022-12-07T14:30:59;7.20;99.90
21722;DHT22;11023;48.274;7.794;2022-12-07T14:33:25;7.20;99.90
21722;DHT22;11023;48.274;7.794;2022-12-07T14:35:51;7.20;99.90
21722;DHT22;11023;48.274;7.794;2022-12-07T14:38:25;7.20;99.90
21722;DHT22;11023;48.274;7.794;2022-12-07T14:40:53;7.30;99.90
21722;DHT22;11023;48.274;7.794;2022-12-07T14:43:19;7.30;99.90
21722;DHT22;11023;48.274;7.794;2022-12-07T14:45:45;7.30;99.90
21722;DHT22;11023;48.274;7.794;2022-12-07T14:48:14;7.40;99.90
21722;DHT22;11023;48.274;7.794;2022-12-07T14:50:43;7.50;99.90
21722;DHT22;11023;48.274;7.794;2022-12-07T14:53:15;7.50;99.90
21722;DHT22;11023;48.274;7.794;2022-12-07T14:55:41;7.50;99.90
21722;DHT22;11023;48.274;7.794;2022-12-07T14:58:15;7.50;99.90
21722;DHT22;11023;48.274;7.794;2022-12-07T15:00:41;7.50;99.90
21722;DHT22;11023;48.274;7.794;2022-12-07T15:03:06;7.50;99.90
21722;DHT22;11023;48.274;7.794;2022-12-07T15:05:33;7.50;99.90
21722;DHT22;11023;48.274;7.794;2022-12-07T15:07:58;7.40;99.90
21722;DHT22;11023;48.274;7.794;2022-12-07T15:10:30;7.40;99.90
21722;DHT22;11023;48.274;7.794;2022-12-07T15:13:01;7.30;99.90
21722;DHT22;11023;48.274;7.794;2022-12-07T15:15:47;7.30;99.90
21722;DHT22;11023;48.274;7.794;2022-12-07T15:18:13;7.20;99.90
21722;DHT22;11023;48.274;7.794;2022-12-07T15:20:39;7.20;99.90
21722;DHT22;11023;48.274;7.794;2022-12-07T15:23:05;7.10;99.90
21722;DHT22;11023;48.274;7.794;2022-12-07T15:25:30;7.00;99.90
21722;DHT22;11023;48.274;7.794;2022-12-07T15:27:56;7.00;99.90
21722;DHT22;11023;48.274;7.794;2022-12-07T15:30:22;7.00;99.90
21722;DHT22;11023;48.274;7.794;2022-12-07T15:32:52;6.90;99.90
21722;DHT22;11023;48.274;7.794;2022-12-07T15:35:18;6.90;99.90
21722;DHT22;11023;48.274;7.794;2022-12-07T15:37:44;6.90;99.90
21722;DHT22;11023;48.274;7.794;2022-12-07T15:40:10;6.90;99.90
21722;DHT22;11023;48.274;7.794;2022-12-07T15:42:37;6.90;99.90
21722;DHT22;11023;48.274;7.794;2022-12-07T15:45:04;6.90;99.90
21722;DHT22;11023;48.274;7.794;2022-12-07T15:47:41;6.90;99.90
21722;DHT22;11023;48.274;7.794;2022-12-07T15:50:09;6.80;99.90
21722;DHT22;11023;48.274;7.794;2022-12-07T15:52:36;6.80;99.90
21722;DHT22;11023;48.274;7.794;2022-12-07T15:55:02;6.80;99.90
21722;DHT22;11023;48.274;7.794;2022-12-07T15:57:32;6.80;99.90
21722;DHT22;11023;48.274;7.794;2022-12-07T15:59:58;6.80;99.90
21722;DHT22;11023;48.274;7.794;2022-12-07T16:02:24;6.80;99.90
21722;DHT22;11023;48.274;7.794;2022-12-07T16:04:51;6.70;99.90
21722;DHT22;11023;48.274;7.794;2022-12-07T16:07:17;6.70;99.90
21722;DHT22;11023;48.274;7.794;2022-12-07T16:09:45;6.60;99.90
21722;DHT22;11023;48.274;7.794;2022-12-07T16:12:11;6.50;99.90
21722;DHT22;11023;48.274;7.794;2022-12-07T16:14:38;6.50;99.90
21722;DHT22;11023;48.274;7.794;2022-12-07T16:17:04;6.40;99.90
21722;DHT22;11023;48.274;7.794;2022-12-07T16:19:31;6.40;99.90
21722;DHT22;11023;48.274;7.794;2022-12-07T16:21:57;6.40;99.90
21722;DHT22;11023;48.274;7.794;2022-12-07T16:24:23;6.30;99.90
21722;DHT22;11023;48.274;7.794;2022-12-07T16:26:49;6.30;99.90
21722;DHT22;11023;48.274;7.794;2022-12-07T16:29:15;6.30;99.90
21722;DHT22;11023;48.274;7.794;2022-12-07T16:31:41;6.20;99.90
21722;DHT22;11023;48.274;7.794;2022-12-07T16:34:08;6.10;99.90
21722;DHT22;11023;48.274;7.794;2022-12-07T16:36:34;6.10;99.90
21722;DHT22;11023;48.274;7.794;2022-12-07T16:39:00;6.00;99.90
21722;DHT22;11023;48.274;7.794;2022-12-07T16:41:26;5.90;99.90
21722;DHT22;11023;48.274;7.794;2022-12-07T16:43:52;5.90;99.90
21722;DHT22;11023;48.274;7.794;2022-12-07T16:46:18;5.90;99.90
21722;DHT22;11023;48.274;7.794;2022-12-07T16:48:44;5.80;99.90
21722;DHT22;11023;48.274;7.794;2022-12-07T16:51:11;5.80;99.90
21722;DHT22;11023;48.274;7.794;2022-12-07T16:53:38;5.70;99.90
21722;DHT22;11023;48.274;7.794;2022-12-07T16:56:12;5.70;99.90
21722;DHT22;11023;48.274;7.794;2022-12-07T16:58:40;5.60;99.90
21722;DHT22;11023;48.274;7.794;2022-12-07T17:01:10;5.60;99.90
21722;DHT22;11023;48.274;7.794;2022-12-07T17:03:36;5.60;99.90
21722;DHT22;11023;48.274;7.794;2022-12-07T17:06:02;5.60;99.90
21722;DHT22;11023;48.274;7.794;2022-12-07T17:08:28;5.60;99.90
21722;DHT22;11023;48.274;7.794;2022-12-07T17:10:53;5.60;99.90
21722;DHT22;11023;48.274;7.794;2022-12-07T17:13:19;5.60;99.90
21722;DHT22;11023;48.274;7.794;2022-12-07T17:16:05;5.60;99.90
21722;DHT22;11023;48.274;7.794;2022-12-07T17:18:33;5.60;99.90
21722;DHT22;11023;48.274;7.794;2022-12-07T17:21:07;5.60;99.90
21722;DHT22;11023;48.274;7.794;2022-12-07T17:23:35;5.50;99.90
21722;DHT22;11023;48.274;7.794;2022-12-07T17:26:12;5.40;99.90
21722;DHT22;11023;48.274;7.794;2022-12-07T17:28:39;5.30;99.90
21722;DHT22;11023;48.274;7.794;2022-12-07T17:31:06;5.30;99.90
21722;DHT22;11023;48.274;7.794;2022-12-07T17:33:32;5.20;99.90
21722;DHT22;11023;48.274;7.794;2022-12-07T17:35:59;5.20;99.90
21722;DHT22;11023;48.274;7.794;2022-12-07T17:38:25;5.10;99.90
21722;DHT22;11023;48.274;7.794;2022-12-07T17:40:50;5.10;99.90
21722;DHT22;11023;48.274;7.794;2022-12-07T17:43:16;5.00;99.90
21722;DHT22;11023;48.274;7.794;2022-12-07T17:45:42;5.10;99.90
21722;DHT22;11023;48.274;7.794;2022-12-07T17:48:07;5.10;99.90
21722;DHT22;11023;48.274;7.794;2022-12-07T17:50:33;5.10;99.90
21722;DHT22;11023;48.274;7.794;2022-12-07T17:53:17;5.00;99.90
21722;DHT22;11023;48.274;7.794;2022-12-07T17:55:43;5.00;99.90
21722;DHT22;11023;48.274;7.794;2022-12-07T17:58:09;5.00;99.90
21722;DHT22;11023;48.274;7.794;2022-12-07T18:00:34;5.00;99.90
21722;DHT22;11023;48.274;7.794;2022-12-07T18:03:06;5.00;99.90
21722;DHT22;11023;48.274;7.794;2022-12-07T18:05:36;5.00;99.90